sensor_id;sensor_type;location;lat;lon;timestamp;P1;durP1;ratioP1;P2;durP2;ratioP2
67757;SDS011;54562;47.620;18.786;2023-07-20T00:01:13;6.40;;;3.40;;
67757;SDS011;54562;47.620;18.786;2023-07-20T00:04:38;9.40;;;3.50;;
67757;SDS011;54562;47.620;18.786;2023-07-20T00:07:44;7.40;;;3.50;;
67757;SDS011;54562;47.620;18.786;2023-07-20T00:10:50;8.30;;;3.50;;
67757;SDS011;54562;47.620;18.786;2023-07-20T00:13:57;8.40;;;3.50;;
67757;SDS011;54562;47.620;18.786;2023-07-20T00:17:04;8.30;;;3.20;;
67757;SDS011;54562;47.620;18.786;2023-07-20T00:20:12;8.60;;;3.70;;
67757;SDS011;54562;47.620;18.786;2023-07-20T00:23:18;8.20;;;3.70;;
67757;SDS011;54562;47.620;18.786;2023-07-20T00:26:26;7.80;;;3.30;;
67757;SDS011;54562;47.620;18.786;2023-07-20T00:29:32;8.90;;;3.50;;
67757;SDS011;54562;47.620;18.786;2023-07-20T00:32:39;11.70;;;3.70;;
67757;SDS011;54562;47.620;18.786;2023-07-20T00:35:46;8.70;;;3.70;;
67757;SDS011;54562;47.620;18.786;2023-07-20T00:38:52;9.50;;;3.60;;
67757;SDS011;54562;47.620;18.786;2023-07-20T00:41:58;9.80;;;3.50;;
67757;SDS011;54562;47.620;18.786;2023-07-20T00:45:05;7.50;;;3.70;;
67757;SDS011;54562;47.620;18.786;2023-07-20T00:48:13;10.20;;;3.70;;
67757;SDS011;54562;47.620;18.786;2023-07-20T00:51:20;7.00;;;3.30;;
67757;SDS011;54562;47.620;18.786;2023-07-20T00:54:27;7.10;;;3.60;;
67757;SDS011;54562;47.620;18.786;2023-07-20T00:57:33;9.20;;;3.70;;
67757;SDS011;54562;47.620;18.786;2023-07-20T01:00:39;9.80;;;3.60;;
67757;SDS011;54562;47.620;18.786;2023-07-20T01:03:46;8.10;;;3.70;;
67757;SDS011;54562;47.620;18.786;2023-07-20T01:06:53;7.30;;;3.10;;
67757;SDS011;54562;47.620;18.786;2023-07-20T01:10:08;9.30;;;3.70;;
67757;SDS011;54562;47.620;18.786;2023-07-20T01:13:16;8.20;;;3.60;;
67757;SDS011;54562;47.620;18.786;2023-07-20T01:16:24;9.90;;;3.60;;
67757;SDS011;54562;47.620;18.786;2023-07-20T01:19:30;7.90;;;3.50;;
67757;SDS011;54562;47.620;18.786;2023-07-20T01:22:41;7.30;;;3.30;;
67757;SDS011;54562;47.620;18.786;2023-07-20T01:26:10;8.30;;;3.30;;
67757;SDS011;54562;47.620;18.786;2023-07-20T01:29:28;8.50;;;3.40;;
67757;SDS011;54562;47.620;18.786;2023-07-20T01:32:44;8.10;;;3.50;;
67757;SDS011;54562;47.620;18.786;2023-07-20T01:35:52;8.20;;;3.50;;
67757;SDS011;54562;47.620;18.786;2023-07-20T01:38:59;8.80;;;3.80;;
67757;SDS011;54562;47.620;18.786;2023-07-20T01:42:08;7.60;;;3.50;;
67757;SDS011;54562;47.620;18.786;2023-07-20T01:45:15;7.30;;;3.40;;
67757;SDS011;54562;47.620;18.786;2023-07-20T01:48:21;10.20;;;3.70;;
67757;SDS011;54562;47.620;18.786;2023-07-20T01:51:28;10.30;;;3.70;;
67757;SDS011;54562;47.620;18.786;2023-07-20T01:54:35;9.30;;;3.60;;
67757;SDS011;54562;47.620;18.786;2023-07-20T01:57:41;8.00;;;3.80;;
67757;SDS011;54562;47.620;18.786;2023-07-20T02:00:48;8.50;;;3.80;;
67757;SDS011;54562;47.620;18.786;2023-07-20T02:03:54;12.00;;;3.60;;
67757;SDS011;54562;47.620;18.786;2023-07-20T02:07:01;7.40;;;3.50;;
67757;SDS011;54562;47.620;18.786;2023-07-20T02:10:08;8.60;;;3.90;;
67757;SDS011;54562;47.620;18.786;2023-07-20T02:13:16;7.90;;;3.80;;
67757;SDS011;54562;47.620;18.786;2023-07-20T02:16:22;8.30;;;3.50;;
67757;SDS011;54562;47.620;18.786;2023-07-20T02:19:31;9.80;;;4.50;;
67757;SDS011;54562;47.620;18.786;2023-07-20T02:22:37;9.70;;;3.80;;
67757;SDS011;54562;47.620;18.786;2023-07-20T02:25:44;8.60;;;3.60;;
67757;SDS011;54562;47.620;18.786;2023-07-20T02:28:50;9.20;;;3.80;;
67757;SDS011;54562;47.620;18.786;2023-07-20T02:31:58;9.80;;;4.00;;
67757;SDS011;54562;47.620;18.786;2023-07-20T02:35:05;8.30;;;3.90;;
67757;SDS011;54562;47.620;18.786;2023-07-20T02:38:12;9.20;;;4.20;;
67757;SDS011;54562;47.620;18.786;2023-07-20T02:41:19;9.10;;;4.00;;
67757;SDS011;54562;47.620;18.786;2023-07-20T02:44:25;8.00;;;3.80;;
67757;SDS011;54562;47.620;18.786;2023-07-20T02:47:32;9.00;;;4.10;;
67757;SDS011;54562;47.620;18.786;2023-07-20T02:50:39;8.50;;;3.70;;
67757;SDS011;54562;47.620;18.786;2023-07-20T02:53:45;9.20;;;3.80;;
67757;SDS011;54562;47.620;18.786;2023-07-20T02:56:52;7.70;;;3.60;;
67757;SDS011;54562;47.620;18.786;2023-07-20T02:59:59;8.10;;;4.00;;
67757;SDS011;54562;47.620;18.786;2023-07-20T03:03:08;7.30;;;3.60;;
67757;SDS011;54562;47.620;18.786;2023-07-20T03:06:15;7.60;;;3.50;;
67757;SDS011;54562;47.620;18.786;2023-07-20T03:09:22;8.40;;;3.90;;
67757;SDS011;54562;47.620;18.786;2023-07-20T03:12:28;9.90;;;3.80;;
67757;SDS011;54562;47.620;18.786;2023-07-20T03:15:38;9.20;;;4.10;;
67757;SDS011;54562;47.620;18.786;2023-07-20T03:18:44;9.90;;;3.90;;
67757;SDS011;54562;47.620;18.786;2023-07-20T03:21:59;7.30;;;3.60;;
67757;SDS011;54562;47.620;18.786;2023-07-20T03:25:07;8.10;;;3.70;;
67757;SDS011;54562;47.620;18.786;2023-07-20T03:28:13;11.10;;;3.90;;
67757;SDS011;54562;47.620;18.786;2023-07-20T03:31:20;7.40;;;3.70;;
67757;SDS011;54562;47.620;18.786;2023-07-20T03:34:27;8.20;;;3.40;;
67757;SDS011;54562;47.620;18.786;2023-07-20T03:37:33;9.90;;;3.60;;
67757;SDS011;54562;47.620;18.786;2023-07-20T03:40:44;7.70;;;3.60;;
67757;SDS011;54562;47.620;18.786;2023-07-20T03:43:55;11.00;;;4.60;;
67757;SDS011;54562;47.620;18.786;2023-07-20T03:47:01;9.50;;;4.30;;
67757;SDS011;54562;47.620;18.786;2023-07-20T03:50:09;8.40;;;4.20;;
67757;SDS011;54562;47.620;18.786;2023-07-20T03:53:16;9.50;;;4.40;;
67757;SDS011;54562;47.620;18.786;2023-07-20T03:56:23;10.50;;;4.40;;
67757;SDS011;54562;47.620;18.786;2023-07-20T03:59:30;10.50;;;4.40;;
67757;SDS011;54562;47.620;18.786;2023-07-20T04:02:37;13.40;;;4.40;;
67757;SDS011;54562;47.620;18.786;2023-07-20T04:05:43;8.90;;;4.30;;
67757;SDS011;54562;47.620;18.786;2023-07-20T04:08:50;9.50;;;4.60;;
67757;SDS011;54562;47.620;18.786;2023-07-20T04:11:56;9.40;;;4.40;;
67757;SDS011;54562;47.620;18.786;2023-07-20T04:15:03;12.40;;;4.50;;
67757;SDS011;54562;47.620;18.786;2023-07-20T04:18:11;11.40;;;4.40;;
67757;SDS011;54562;47.620;18.786;2023-07-20T04:21:17;7.90;;;3.80;;
67757;SDS011;54562;47.620;18.786;2023-07-20T04:24:23;10.00;;;4.40;;
67757;SDS011;54562;47.620;18.786;2023-07-20T04:27:29;7.70;;;4.00;;
67757;SDS011;54562;47.620;18.786;2023-07-20T04:30:36;8.50;;;4.00;;
67757;SDS011;54562;47.620;18.786;2023-07-20T04:33:43;8.00;;;4.20;;
67757;SDS011;54562;47.620;18.786;2023-07-20T04:36:50;8.20;;;3.90;;
67757;SDS011;54562;47.620;18.786;2023-07-20T04:39:57;9.40;;;4.20;;
67757;SDS011;54562;47.620;18.786;2023-07-20T04:43:03;6.70;;;3.60;;
67757;SDS011;54562;47.620;18.786;2023-07-20T04:46:10;7.80;;;3.80;;
67757;SDS011;54562;47.620;18.786;2023-07-20T04:49:17;8.20;;;4.00;;
67757;SDS011;54562;47.620;18.786;2023-07-20T04:52:23;7.70;;;3.90;;
67757;SDS011;54562;47.620;18.786;2023-07-20T04:55:49;9.50;;;3.90;;
67757;SDS011;54562;47.620;18.786;2023-07-20T04:58:57;7.70;;;4.00;;
67757;SDS011;54562;47.620;18.786;2023-07-20T05:02:04;9.90;;;4.10;;
67757;SDS011;54562;47.620;18.786;2023-07-20T05:05:10;11.10;;;4.00;;
67757;SDS011;54562;47.620;18.786;2023-07-20T05:08:17;7.70;;;4.10;;
67757;SDS011;54562;47.620;18.786;2023-07-20T05:11:25;9.00;;;4.10;;
67757;SDS011;54562;47.620;18.786;2023-07-20T05:14:31;7.80;;;4.30;;
67757;SDS011;54562;47.620;18.786;2023-07-20T05:17:38;8.90;;;4.00;;
67757;SDS011;54562;47.620;18.786;2023-07-20T05:20:44;10.30;;;4.60;;
67757;SDS011;54562;47.620;18.786;2023-07-20T05:23:51;7.80;;;3.70;;
67757;SDS011;54562;47.620;18.786;2023-07-20T05:26:58;9.10;;;4.10;;
67757;SDS011;54562;47.620;18.786;2023-07-20T05:30:06;11.10;;;4.30;;
67757;SDS011;54562;47.620;18.786;2023-07-20T05:33:13;11.10;;;4.00;;
67757;SDS011;54562;47.620;18.786;2023-07-20T05:36:19;9.00;;;4.20;;
67757;SDS011;54562;47.620;18.786;2023-07-20T05:39:27;9.20;;;3.80;;
67757;SDS011;54562;47.620;18.786;2023-07-20T05:42:33;8.30;;;4.10;;
67757;SDS011;54562;47.620;18.786;2023-07-20T05:45:42;8.10;;;3.90;;
67757;SDS011;54562;47.620;18.786;2023-07-20T05:48:49;10.80;;;4.30;;
67757;SDS011;54562;47.620;18.786;2023-07-20T05:51:55;8.70;;;3.80;;
67757;SDS011;54562;47.620;18.786;2023-07-20T05:55:01;8.00;;;4.10;;
67757;SDS011;54562;47.620;18.786;2023-07-20T05:58:08;12.50;;;3.90;;
67757;SDS011;54562;47.620;18.786;2023-07-20T06:01:15;8.50;;;3.80;;
67757;SDS011;54562;47.620;18.786;2023-07-20T06:04:22;9.40;;;3.90;;
67757;SDS011;54562;47.620;18.786;2023-07-20T06:07:28;8.00;;;3.70;;
67757;SDS011;54562;47.620;18.786;2023-07-20T06:10:35;7.70;;;4.00;;
67757;SDS011;54562;47.620;18.786;2023-07-20T06:13:41;8.00;;;4.00;;
67757;SDS011;54562;47.620;18.786;2023-07-20T06:16:48;11.60;;;4.30;;
67757;SDS011;54562;47.620;18.786;2023-07-20T06:19:54;11.30;;;4.50;;
67757;SDS011;54562;47.620;18.786;2023-07-20T06:23:01;9.90;;;4.80;;
67757;SDS011;54562;47.620;18.786;2023-07-20T06:26:07;7.40;;;4.20;;
67757;SDS011;54562;47.620;18.786;2023-07-20T06:29:14;10.40;;;4.90;;
67757;SDS011;54562;47.620;18.786;2023-07-20T06:32:20;8.90;;;4.00;;
67757;SDS011;54562;47.620;18.786;2023-07-20T06:35:26;8.80;;;4.40;;
67757;SDS011;54562;47.620;18.786;2023-07-20T06:38:32;9.00;;;4.10;;
67757;SDS011;54562;47.620;18.786;2023-07-20T06:41:39;7.80;;;4.20;;
67757;SDS011;54562;47.620;18.786;2023-07-20T06:44:45;8.40;;;4.00;;
67757;SDS011;54562;47.620;18.786;2023-07-20T06:47:52;10.40;;;4.30;;
67757;SDS011;54562;47.620;18.786;2023-07-20T06:50:59;9.90;;;4.00;;
67757;SDS011;54562;47.620;18.786;2023-07-20T06:54:05;7.80;;;4.00;;
67757;SDS011;54562;47.620;18.786;2023-07-20T06:57:12;10.10;;;4.00;;
67757;SDS011;54562;47.620;18.786;2023-07-20T07:00:22;9.10;;;4.20;;
67757;SDS011;54562;47.620;18.786;2023-07-20T07:03:29;8.80;;;4.00;;
67757;SDS011;54562;47.620;18.786;2023-07-20T07:06:36;6.60;;;3.50;;
67757;SDS011;54562;47.620;18.786;2023-07-20T07:09:42;11.30;;;3.90;;
67757;SDS011;54562;47.620;18.786;2023-07-20T07:12:48;10.90;;;3.90;;
67757;SDS011;54562;47.620;18.786;2023-07-20T07:15:55;6.80;;;3.80;;
67757;SDS011;54562;47.620;18.786;2023-07-20T07:19:01;10.00;;;4.10;;
67757;SDS011;54562;47.620;18.786;2023-07-20T07:22:09;9.10;;;4.00;;
67757;SDS011;54562;47.620;18.786;2023-07-20T07:25:17;7.20;;;3.90;;
67757;SDS011;54562;47.620;18.786;2023-07-20T07:28:26;7.50;;;3.90;;
67757;SDS011;54562;47.620;18.786;2023-07-20T07:31:33;7.30;;;3.50;;
67757;SDS011;54562;47.620;18.786;2023-07-20T07:34:43;9.10;;;3.90;;
67757;SDS011;54562;47.620;18.786;2023-07-20T07:37:50;8.10;;;3.90;;
67757;SDS011;54562;47.620;18.786;2023-07-20T07:41:17;7.20;;;3.50;;
67757;SDS011;54562;47.620;18.786;2023-07-20T07:44:24;9.80;;;3.60;;
67757;SDS011;54562;47.620;18.786;2023-07-20T07:47:30;8.30;;;3.70;;
67757;SDS011;54562;47.620;18.786;2023-07-20T07:50:37;7.50;;;3.10;;
67757;SDS011;54562;47.620;18.786;2023-07-20T07:53:45;6.50;;;3.20;;
67757;SDS011;54562;47.620;18.786;2023-07-20T07:56:53;7.40;;;3.10;;
67757;SDS011;54562;47.620;18.786;2023-07-20T07:59:59;7.10;;;3.30;;
67757;SDS011;54562;47.620;18.786;2023-07-20T08:03:07;8.50;;;3.30;;
67757;SDS011;54562;47.620;18.786;2023-07-20T08:06:14;11.40;;;3.50;;
67757;SDS011;54562;47.620;18.786;2023-07-20T08:09:20;8.50;;;3.20;;
67757;SDS011;54562;47.620;18.786;2023-07-20T08:12:28;19.30;;;3.90;;
67757;SDS011;54562;47.620;18.786;2023-07-20T08:15:34;9.80;;;3.50;;
67757;SDS011;54562;47.620;18.786;2023-07-20T08:18:41;6.90;;;3.20;;
67757;SDS011;54562;47.620;18.786;2023-07-20T08:21:49;6.40;;;2.80;;
67757;SDS011;54562;47.620;18.786;2023-07-20T08:24:55;8.50;;;3.00;;
67757;SDS011;54562;47.620;18.786;2023-07-20T08:28:02;9.70;;;3.10;;
67757;SDS011;54562;47.620;18.786;2023-07-20T08:31:09;6.30;;;3.00;;
67757;SDS011;54562;47.620;18.786;2023-07-20T08:34:16;7.00;;;2.80;;
67757;SDS011;54562;47.620;18.786;2023-07-20T08:37:34;7.20;;;3.00;;
67757;SDS011;54562;47.620;18.786;2023-07-20T08:40:41;6.50;;;2.80;;
67757;SDS011;54562;47.620;18.786;2023-07-20T08:43:49;6.80;;;2.80;;
67757;SDS011;54562;47.620;18.786;2023-07-20T08:46:57;8.30;;;2.70;;
67757;SDS011;54562;47.620;18.786;2023-07-20T08:50:04;7.50;;;3.20;;
67757;SDS011;54562;47.620;18.786;2023-07-20T08:53:12;6.00;;;2.60;;
67757;SDS011;54562;47.620;18.786;2023-07-20T08:56:19;6.40;;;2.90;;
67757;SDS011;54562;47.620;18.786;2023-07-20T08:59:26;6.50;;;2.90;;
67757;SDS011;54562;47.620;18.786;2023-07-20T09:02:33;8.00;;;2.90;;
67757;SDS011;54562;47.620;18.786;2023-07-20T09:05:43;7.50;;;3.00;;
67757;SDS011;54562;47.620;18.786;2023-07-20T09:08:50;9.50;;;3.10;;
67757;SDS011;54562;47.620;18.786;2023-07-20T09:11:57;7.60;;;2.90;;
67757;SDS011;54562;47.620;18.786;2023-07-20T09:15:03;8.30;;;3.20;;
67757;SDS011;54562;47.620;18.786;2023-07-20T09:18:11;8.60;;;2.90;;
67757;SDS011;54562;47.620;18.786;2023-07-20T09:21:19;7.80;;;2.80;;
67757;SDS011;54562;47.620;18.786;2023-07-20T09:24:28;8.60;;;2.90;;
67757;SDS011;54562;47.620;18.786;2023-07-20T09:27:37;6.80;;;2.70;;
67757;SDS011;54562;47.620;18.786;2023-07-20T09:30:46;9.10;;;2.90;;
67757;SDS011;54562;47.620;18.786;2023-07-20T09:33:55;8.50;;;2.90;;
67757;SDS011;54562;47.620;18.786;2023-07-20T09:37:04;7.30;;;2.90;;
67757;SDS011;54562;47.620;18.786;2023-07-20T09:40:11;11.00;;;3.10;;
67757;SDS011;54562;47.620;18.786;2023-07-20T09:43:21;8.10;;;2.90;;
67757;SDS011;54562;47.620;18.786;2023-07-20T09:46:40;6.10;;;2.70;;
67757;SDS011;54562;47.620;18.786;2023-07-20T09:49:50;5.80;;;3.00;;
67757;SDS011;54562;47.620;18.786;2023-07-20T09:53:07;6.50;;;2.70;;
67757;SDS011;54562;47.620;18.786;2023-07-20T09:56:18;8.80;;;2.90;;
67757;SDS011;54562;47.620;18.786;2023-07-20T09:59:28;8.50;;;3.30;;
67757;SDS011;54562;47.620;18.786;2023-07-20T10:02:35;6.70;;;2.80;;
67757;SDS011;54562;47.620;18.786;2023-07-20T10:05:47;8.80;;;2.90;;
67757;SDS011;54562;47.620;18.786;2023-07-20T10:08:59;7.00;;;2.80;;
67757;SDS011;54562;47.620;18.786;2023-07-20T10:12:10;10.90;;;2.70;;
67757;SDS011;54562;47.620;18.786;2023-07-20T10:15:22;7.40;;;2.70;;
67757;SDS011;54562;47.620;18.786;2023-07-20T10:18:30;6.70;;;2.80;;
67757;SDS011;54562;47.620;18.786;2023-07-20T10:21:40;6.90;;;2.70;;
67757;SDS011;54562;47.620;18.786;2023-07-20T10:24:58;15.00;;;3.30;;
67757;SDS011;54562;47.620;18.786;2023-07-20T10:28:05;10.10;;;2.70;;
67757;SDS011;54562;47.620;18.786;2023-07-20T10:31:12;5.90;;;2.50;;
67757;SDS011;54562;47.620;18.786;2023-07-20T10:34:19;7.10;;;2.50;;
67757;SDS011;54562;47.620;18.786;2023-07-20T10:40:56;7.20;;;2.50;;
67757;SDS011;54562;47.620;18.786;2023-07-20T10:44:03;7.00;;;2.40;;
67757;SDS011;54562;47.620;18.786;2023-07-20T10:47:10;6.50;;;2.50;;
67757;SDS011;54562;47.620;18.786;2023-07-20T10:50:19;7.00;;;2.60;;
67757;SDS011;54562;47.620;18.786;2023-07-20T10:53:27;9.10;;;2.80;;
67757;SDS011;54562;47.620;18.786;2023-07-20T10:56:34;9.70;;;3.00;;
67757;SDS011;54562;47.620;18.786;2023-07-20T10:59:41;6.60;;;2.70;;
67757;SDS011;54562;47.620;18.786;2023-07-20T11:02:48;7.30;;;2.70;;
67757;SDS011;54562;47.620;18.786;2023-07-20T11:05:56;6.90;;;2.70;;
67757;SDS011;54562;47.620;18.786;2023-07-20T11:09:07;7.50;;;2.50;;
67757;SDS011;54562;47.620;18.786;2023-07-20T11:12:17;5.40;;;2.80;;
67757;SDS011;54562;47.620;18.786;2023-07-20T11:15:24;7.40;;;2.50;;
67757;SDS011;54562;47.620;18.786;2023-07-20T11:18:30;5.90;;;2.40;;
67757;SDS011;54562;47.620;18.786;2023-07-20T11:21:44;8.80;;;2.60;;
67757;SDS011;54562;47.620;18.786;2023-07-20T11:25:06;8.20;;;2.60;;
67757;SDS011;54562;47.620;18.786;2023-07-20T11:28:16;6.00;;;2.30;;
67757;SDS011;54562;47.620;18.786;2023-07-20T11:31:22;6.10;;;2.50;;
67757;SDS011;54562;47.620;18.786;2023-07-20T11:34:29;8.50;;;2.60;;
67757;SDS011;54562;47.620;18.786;2023-07-20T11:37:36;9.30;;;2.60;;
67757;SDS011;54562;47.620;18.786;2023-07-20T11:40:46;6.60;;;2.40;;
67757;SDS011;54562;47.620;18.786;2023-07-20T11:43:53;7.20;;;2.50;;
67757;SDS011;54562;47.620;18.786;2023-07-20T11:47:03;6.30;;;2.50;;
67757;SDS011;54562;47.620;18.786;2023-07-20T11:50:12;6.30;;;2.50;;
67757;SDS011;54562;47.620;18.786;2023-07-20T11:53:19;7.40;;;2.40;;
67757;SDS011;54562;47.620;18.786;2023-07-20T11:56:25;7.40;;;2.60;;
67757;SDS011;54562;47.620;18.786;2023-07-20T11:59:32;7.10;;;2.60;;
67757;SDS011;54562;47.620;18.786;2023-07-20T12:02:38;9.60;;;2.50;;
67757;SDS011;54562;47.620;18.786;2023-07-20T12:05:45;6.80;;;2.50;;
67757;SDS011;54562;47.620;18.786;2023-07-20T12:09:03;5.60;;;2.50;;
67757;SDS011;54562;47.620;18.786;2023-07-20T12:12:10;6.20;;;2.60;;
67757;SDS011;54562;47.620;18.786;2023-07-20T12:15:17;6.50;;;2.10;;
67757;SDS011;54562;47.620;18.786;2023-07-20T12:18:34;7.00;;;2.40;;
67757;SDS011;54562;47.620;18.786;2023-07-20T12:21:41;9.20;;;2.30;;
67757;SDS011;54562;47.620;18.786;2023-07-20T12:24:48;9.20;;;2.40;;
67757;SDS011;54562;47.620;18.786;2023-07-20T12:27:58;14.10;;;3.00;;
67757;SDS011;54562;47.620;18.786;2023-07-20T12:31:06;5.90;;;2.10;;
67757;SDS011;54562;47.620;18.786;2023-07-20T12:34:14;5.80;;;2.40;;
67757;SDS011;54562;47.620;18.786;2023-07-20T12:37:20;7.00;;;2.00;;
67757;SDS011;54562;47.620;18.786;2023-07-20T12:40:27;5.90;;;2.40;;
67757;SDS011;54562;47.620;18.786;2023-07-20T12:43:33;5.90;;;2.20;;
67757;SDS011;54562;47.620;18.786;2023-07-20T12:46:40;5.70;;;2.30;;
67757;SDS011;54562;47.620;18.786;2023-07-20T12:49:46;6.80;;;2.20;;
67757;SDS011;54562;47.620;18.786;2023-07-20T12:52:54;7.60;;;2.20;;
67757;SDS011;54562;47.620;18.786;2023-07-20T12:56:00;7.70;;;2.50;;
67757;SDS011;54562;47.620;18.786;2023-07-20T12:59:26;5.90;;;2.00;;
67757;SDS011;54562;47.620;18.786;2023-07-20T13:02:33;5.10;;;2.10;;
67757;SDS011;54562;47.620;18.786;2023-07-20T13:05:39;5.70;;;2.20;;
67757;SDS011;54562;47.620;18.786;2023-07-20T13:08:49;9.20;;;2.30;;
67757;SDS011;54562;47.620;18.786;2023-07-20T13:11:59;6.20;;;2.30;;
67757;SDS011;54562;47.620;18.786;2023-07-20T13:15:06;6.40;;;2.20;;
67757;SDS011;54562;47.620;18.786;2023-07-20T13:18:14;5.30;;;2.20;;
67757;SDS011;54562;47.620;18.786;2023-07-20T13:21:22;6.40;;;2.30;;
67757;SDS011;54562;47.620;18.786;2023-07-20T13:24:28;5.00;;;2.30;;
67757;SDS011;54562;47.620;18.786;2023-07-20T13:27:35;5.90;;;2.20;;
67757;SDS011;54562;47.620;18.786;2023-07-20T13:30:41;9.10;;;2.20;;
67757;SDS011;54562;47.620;18.786;2023-07-20T13:33:50;7.20;;;2.20;;
67757;SDS011;54562;47.620;18.786;2023-07-20T13:37:02;10.90;;;2.50;;
67757;SDS011;54562;47.620;18.786;2023-07-20T13:40:10;6.80;;;2.30;;
67757;SDS011;54562;47.620;18.786;2023-07-20T13:43:16;5.20;;;2.10;;
67757;SDS011;54562;47.620;18.786;2023-07-20T13:46:23;8.10;;;2.20;;
67757;SDS011;54562;47.620;18.786;2023-07-20T13:49:32;8.30;;;2.30;;
67757;SDS011;54562;47.620;18.786;2023-07-20T13:52:49;4.90;;;2.00;;
67757;SDS011;54562;47.620;18.786;2023-07-20T13:56:16;4.50;;;1.90;;
67757;SDS011;54562;47.620;18.786;2023-07-20T13:59:23;6.30;;;2.30;;
67757;SDS011;54562;47.620;18.786;2023-07-20T14:02:29;5.50;;;2.20;;
67757;SDS011;54562;47.620;18.786;2023-07-20T14:05:39;6.90;;;2.40;;
67757;SDS011;54562;47.620;18.786;2023-07-20T14:08:49;4.80;;;2.00;;
67757;SDS011;54562;47.620;18.786;2023-07-20T14:11:56;5.20;;;2.10;;
67757;SDS011;54562;47.620;18.786;2023-07-20T14:15:06;7.60;;;2.30;;
67757;SDS011;54562;47.620;18.786;2023-07-20T14:18:14;7.00;;;2.30;;
67757;SDS011;54562;47.620;18.786;2023-07-20T14:21:22;5.00;;;2.10;;
67757;SDS011;54562;47.620;18.786;2023-07-20T14:24:34;8.30;;;2.40;;
67757;SDS011;54562;47.620;18.786;2023-07-20T14:27:41;5.80;;;2.20;;
67757;SDS011;54562;47.620;18.786;2023-07-20T14:30:48;10.40;;;2.70;;
67757;SDS011;54562;47.620;18.786;2023-07-20T14:33:54;6.00;;;2.00;;
67757;SDS011;54562;47.620;18.786;2023-07-20T14:37:02;6.10;;;2.10;;
67757;SDS011;54562;47.620;18.786;2023-07-20T14:40:09;4.10;;;1.90;;
67757;SDS011;54562;47.620;18.786;2023-07-20T14:43:18;8.50;;;2.40;;
67757;SDS011;54562;47.620;18.786;2023-07-20T14:46:24;5.60;;;2.00;;
67757;SDS011;54562;47.620;18.786;2023-07-20T14:49:31;6.70;;;2.10;;
67757;SDS011;54562;47.620;18.786;2023-07-20T14:52:38;5.90;;;2.50;;
67757;SDS011;54562;47.620;18.786;2023-07-20T14:55:47;6.50;;;1.90;;
67757;SDS011;54562;47.620;18.786;2023-07-20T14:58:54;6.50;;;2.20;;
67757;SDS011;54562;47.620;18.786;2023-07-20T15:02:04;4.70;;;2.10;;
67757;SDS011;54562;47.620;18.786;2023-07-20T15:05:11;4.10;;;1.90;;
67757;SDS011;54562;47.620;18.786;2023-07-20T15:08:18;6.60;;;2.30;;
67757;SDS011;54562;47.620;18.786;2023-07-20T15:11:24;5.60;;;2.30;;
67757;SDS011;54562;47.620;18.786;2023-07-20T15:14:31;6.00;;;2.10;;
67757;SDS011;54562;47.620;18.786;2023-07-20T15:17:39;7.00;;;2.20;;
67757;SDS011;54562;47.620;18.786;2023-07-20T15:20:46;7.30;;;2.30;;
67757;SDS011;54562;47.620;18.786;2023-07-20T15:23:57;7.90;;;2.30;;
67757;SDS011;54562;47.620;18.786;2023-07-20T15:27:05;5.10;;;2.20;;
67757;SDS011;54562;47.620;18.786;2023-07-20T15:30:12;5.00;;;2.20;;
67757;SDS011;54562;47.620;18.786;2023-07-20T15:33:39;5.90;;;2.30;;
67757;SDS011;54562;47.620;18.786;2023-07-20T15:36:46;4.80;;;2.10;;
67757;SDS011;54562;47.620;18.786;2023-07-20T15:39:53;9.10;;;2.30;;
67757;SDS011;54562;47.620;18.786;2023-07-20T15:43:00;5.10;;;2.30;;
67757;SDS011;54562;47.620;18.786;2023-07-20T15:49:52;11.90;;;2.50;;
67757;SDS011;54562;47.620;18.786;2023-07-20T15:52:58;8.10;;;2.10;;
67757;SDS011;54562;47.620;18.786;2023-07-20T15:56:05;7.40;;;2.40;;
67757;SDS011;54562;47.620;18.786;2023-07-20T15:59:12;8.00;;;2.50;;
67757;SDS011;54562;47.620;18.786;2023-07-20T16:02:20;7.60;;;2.20;;
67757;SDS011;54562;47.620;18.786;2023-07-20T16:05:26;6.50;;;2.60;;
67757;SDS011;54562;47.620;18.786;2023-07-20T16:08:34;8.60;;;2.60;;
67757;SDS011;54562;47.620;18.786;2023-07-20T16:11:41;6.10;;;2.10;;
67757;SDS011;54562;47.620;18.786;2023-07-20T16:14:48;6.80;;;2.40;;
67757;SDS011;54562;47.620;18.786;2023-07-20T16:17:57;6.40;;;2.40;;
67757;SDS011;54562;47.620;18.786;2023-07-20T16:21:05;8.00;;;2.40;;
67757;SDS011;54562;47.620;18.786;2023-07-20T16:24:12;7.50;;;2.30;;
67757;SDS011;54562;47.620;18.786;2023-07-20T16:27:20;6.40;;;2.20;;
67757;SDS011;54562;47.620;18.786;2023-07-20T16:30:28;6.50;;;2.30;;
67757;SDS011;54562;47.620;18.786;2023-07-20T16:33:35;8.00;;;2.30;;
67757;SDS011;54562;47.620;18.786;2023-07-20T16:36:48;6.00;;;2.40;;
67757;SDS011;54562;47.620;18.786;2023-07-20T16:39:57;7.40;;;2.50;;
67757;SDS011;54562;47.620;18.786;2023-07-20T16:43:04;7.40;;;2.50;;
67757;SDS011;54562;47.620;18.786;2023-07-20T16:46:11;6.30;;;2.40;;
67757;SDS011;54562;47.620;18.786;2023-07-20T16:49:20;8.50;;;2.40;;
67757;SDS011;54562;47.620;18.786;2023-07-20T16:52:28;10.40;;;2.70;;
67757;SDS011;54562;47.620;18.786;2023-07-20T16:55:34;5.00;;;2.20;;
67757;SDS011;54562;47.620;18.786;2023-07-20T16:58:44;9.60;;;2.20;;
67757;SDS011;54562;47.620;18.786;2023-07-20T17:01:50;6.50;;;2.70;;
67757;SDS011;54562;47.620;18.786;2023-07-20T17:04:57;7.20;;;2.40;;
67757;SDS011;54562;47.620;18.786;2023-07-20T17:08:04;7.90;;;2.70;;
67757;SDS011;54562;47.620;18.786;2023-07-20T17:11:10;7.10;;;2.30;;
67757;SDS011;54562;47.620;18.786;2023-07-20T17:14:17;7.90;;;2.60;;
67757;SDS011;54562;47.620;18.786;2023-07-20T17:17:23;11.80;;;5.10;;
67757;SDS011;54562;47.620;18.786;2023-07-20T17:20:29;7.60;;;3.20;;
67757;SDS011;54562;47.620;18.786;2023-07-20T17:23:40;14.70;;;3.20;;
67757;SDS011;54562;47.620;18.786;2023-07-20T17:26:49;13.80;;;2.90;;
67757;SDS011;54562;47.620;18.786;2023-07-20T17:30:16;6.00;;;2.50;;
67757;SDS011;54562;47.620;18.786;2023-07-20T17:33:23;6.40;;;2.40;;
67757;SDS011;54562;47.620;18.786;2023-07-20T17:36:29;5.80;;;2.60;;
67757;SDS011;54562;47.620;18.786;2023-07-20T17:39:39;7.20;;;2.90;;
67757;SDS011;54562;47.620;18.786;2023-07-20T17:42:48;7.60;;;2.90;;
67757;SDS011;54562;47.620;18.786;2023-07-20T17:45:58;8.60;;;2.70;;
67757;SDS011;54562;47.620;18.786;2023-07-20T17:49:08;20.00;;;13.00;;
67757;SDS011;54562;47.620;18.786;2023-07-20T17:52:16;30.80;;;15.00;;
67757;SDS011;54562;47.620;18.786;2023-07-20T17:55:25;12.50;;;5.50;;
67757;SDS011;54562;47.620;18.786;2023-07-20T17:58:31;9.70;;;3.20;;
67757;SDS011;54562;47.620;18.786;2023-07-20T18:01:37;8.00;;;2.70;;
67757;SDS011;54562;47.620;18.786;2023-07-20T18:04:44;6.40;;;2.70;;
67757;SDS011;54562;47.620;18.786;2023-07-20T18:07:50;10.00;;;2.80;;
67757;SDS011;54562;47.620;18.786;2023-07-20T18:11:02;7.30;;;2.60;;
67757;SDS011;54562;47.620;18.786;2023-07-20T18:14:10;6.30;;;2.40;;
67757;SDS011;54562;47.620;18.786;2023-07-20T18:17:16;11.80;;;2.40;;
67757;SDS011;54562;47.620;18.786;2023-07-20T18:20:22;7.20;;;2.50;;
67757;SDS011;54562;47.620;18.786;2023-07-20T18:23:29;6.10;;;2.50;;
67757;SDS011;54562;47.620;18.786;2023-07-20T18:26:36;9.40;;;2.50;;
67757;SDS011;54562;47.620;18.786;2023-07-20T18:29:42;6.60;;;2.50;;
67757;SDS011;54562;47.620;18.786;2023-07-20T18:32:49;6.90;;;2.40;;
67757;SDS011;54562;47.620;18.786;2023-07-20T18:35:57;8.20;;;2.80;;
67757;SDS011;54562;47.620;18.786;2023-07-20T18:39:04;10.50;;;2.50;;
67757;SDS011;54562;47.620;18.786;2023-07-20T18:42:10;8.30;;;2.40;;